Pewamo, Michigan
Current Conditions -  °F | °C
As of 11:34 AM on Thursday 30 Oct 2014 (Local Time) from KY70 Reporting Station
Overcast Overcast  
Wind Chill: 42°   Ceiling: 4000
Heat Index: 45°   Visibility: 10mi
Dew Point: 38°   Wind: 6mph
Humidity: 75%   Direction: 210°SSW
Pressure: 30.1"   Gusts: NA
Location:  43°N, 84.85°W
Report Text: KY70 301534Z AUTO 21005KT 10SM OVC040 07/03 A3010 RMK AO2 T00740033
Loading
Personal Weather Stations






























Interactive Weather Map
Tropical Storm Tracking
New forecast layout! Learn more

10-Day Weather Forecast

Advertisements
Track Severe Weather on mobile